Time;durP1;ratioP1;P1;durP2;ratioP2;P2;SDS_P1;SDS_P2;PMS_P1;PMS_P2;Temp;Humidity;BMP_temperature;BMP_pressure;BME280_temperature;BME280_humidity;BME280_pressure;Samples;Min_cycle;Max_cycle;Signal;HPM_P1;HPM_P2
2023/09/17 00:02:14;;;;;;;;;14.00;12.50;;;;;23.99;45.73;100673.63;5082411;28;45437;-59
2023/09/17 00:04:40;;;;;;;;;13.75;10.50;;;;;23.97;45.72;100678.25;5082523;28;45434;-59
2023/09/17 00:07:05;;;;;;;;;11.00;11.00;;;;;23.96;45.63;100673.84;5082043;28;46124;-59
2023/09/17 00:09:31;;;;;;;;;13.00;12.25;;;;;23.93;45.76;100666.03;5082249;28;45334;-58
2023/09/17 00:11:56;;;;;;;;;10.00;10.00;;;;;23.89;45.73;100668.03;5082213;28;45642;-59
2023/09/17 00:14:22;;;;;;;;;12.00;10.75;;;;;23.90;45.81;100663.50;5082122;28;45368;-59
2023/09/17 00:16:47;;;;;;;;;11.00;11.00;;;;;23.87;45.92;100661.91;5082126;28;45847;-58
2023/09/17 00:19:13;;;;;;;;;8.50;8.50;;;;;23.85;45.94;100664.69;5082261;28;45414;-58
2023/09/17 00:21:38;;;;;;;;;12.00;10.50;;;;;23.79;45.92;100656.25;5082065;28;45171;-59
2023/09/17 00:24:04;;;;;;;;;11.25;11.25;;;;;23.81;46.06;100662.34;5082041;28;45440;-58
2023/09/17 00:26:29;;;;;;;;;12.00;10.50;;;;;23.79;46.10;100661.59;5081528;28;45448;-58
2023/09/17 00:28:54;;;;;;;;;11.75;11.00;;;;;23.76;46.09;100664.50;5081803;28;45170;-58
2023/09/17 00:31:20;;;;;;;;;11.50;10.50;;;;;23.73;46.05;100665.56;5081896;28;45225;-58
2023/09/17 00:33:45;;;;;;;;;12.25;10.75;;;;;23.70;46.14;100672.00;5081874;28;48063;-58
2023/09/17 00:36:10;;;;;;;;;12.75;9.75;;;;;23.69;46.04;100666.75;5081318;28;55634;-58
2023/09/17 00:38:36;;;;;;;;;9.00;9.00;;;;;23.66;46.09;100669.66;5082087;28;45402;-58
2023/09/17 00:41:01;;;;;;;;;11.00;9.75;;;;;23.64;46.28;100675.13;5081717;28;45212;-59
2023/09/17 00:43:26;;;;;;;;;9.00;9.00;;;;;23.61;46.38;100686.09;5081093;28;45554;-59
2023/09/17 00:45:52;;;;;;;;;10.00;10.00;;;;;23.59;46.25;100673.75;5081144;28;45364;-58
2023/09/17 00:48:17;;;;;;;;;10.00;8.50;;;;;23.57;45.96;100667.63;5081667;28;45347;-58
2023/09/17 00:50:44;;;;;;;;;9.75;9.00;;;;;23.54;46.34;100666.84;5081748;28;45292;-59
2023/09/17 00:53:09;;;;;;;;;9.75;9.00;;;;;23.52;46.26;100665.25;5081649;28;45414;-58
2023/09/17 00:55:37;;;;;;;;;9.50;8.25;;;;;23.50;46.38;100661.84;5081098;28;45906;-58
2023/09/17 00:58:04;;;;;;;;;9.00;9.00;;;;;23.49;46.23;100668.16;5063196;28;45252;-58
2023/09/17 01:00:31;;;;;;;;;8.00;8.00;;;;;23.46;46.43;100671.91;5081537;28;45198;-58
2023/09/17 01:03:02;;;;;;;;;8.75;8.00;;;;;23.44;46.55;100668.47;5079929;28;45432;-58
2023/09/17 01:05:36;;;;;;;;;8.75;7.50;;;;;23.43;46.58;100668.59;5081275;28;47426;-59
2023/09/17 01:08:05;;;;;;;;;5.50;4.50;;;;;23.41;46.33;100670.50;5081471;28;45370;-58
2023/09/17 01:10:30;;;;;;;;;10.75;9.50;;;;;23.37;46.72;100665.38;5081195;28;45354;-58
2023/09/17 01:12:56;;;;;;;;;8.25;7.00;;;;;23.36;46.64;100663.66;5081181;28;45216;-58
2023/09/17 01:15:22;;;;;;;;;8.00;8.00;;;;;23.35;46.46;100666.44;5080997;28;46315;-59
2023/09/17 01:17:49;;;;;;;;;5.00;5.00;;;;;23.32;46.62;100656.78;5081237;28;45453;-59
2023/09/17 01:20:28;;;;;;;;;8.75;8.00;;;;;23.30;46.49;100649.81;5081296;28;45403;-59
2023/09/17 01:22:59;;;;;;;;;8.00;7.50;;;;;23.28;46.77;100651.75;5080938;28;45443;-59
2023/09/17 01:25:40;;;;;;;;;10.50;9.75;;;;;23.25;46.77;100642.09;5080752;28;45316;-58
2023/09/17 01:28:06;;;;;;;;;10.25;7.75;;;;;23.24;47.00;100652.94;5080848;28;45256;-59
2023/09/17 01:30:32;;;;;;;;;8.25;7.50;;;;;23.23;46.54;100645.84;5081229;28;45234;-59
2023/09/17 01:32:57;;;;;;;;;8.50;8.25;;;;;23.20;46.70;100647.75;5080894;28;45506;-59
2023/09/17 01:35:22;;;;;;;;;7.50;7.25;;;;;23.19;46.63;100654.09;5079963;28;53518;-59
2023/09/17 01:37:54;;;;;;;;;9.00;8.00;;;;;23.16;46.95;100662.34;5080878;28;45399;-59
2023/09/17 01:40:20;;;;;;;;;7.50;7.50;;;;;23.15;47.12;100662.44;5081129;28;45289;-59
2023/09/17 01:42:48;;;;;;;;;8.00;8.00;;;;;23.13;46.90;100659.84;5062256;28;45546;-59
2023/09/17 01:45:16;;;;;;;;;7.00;7.00;;;;;23.10;46.83;100656.53;5080605;28;47185;-59
2023/09/17 01:47:44;;;;;;;;;9.25;8.25;;;;;23.09;47.15;100657.47;5080559;28;45302;-59
2023/09/17 01:50:11;;;;;;;;;8.25;8.25;;;;;23.08;46.99;100658.44;5081021;28;45284;-59
2023/09/17 01:52:39;;;;;;;;;8.00;8.00;;;;;23.04;47.20;100657.78;5080558;28;45635;-58
2023/09/17 01:55:06;;;;;;;;;10.00;10.00;;;;;23.03;47.05;100656.94;5080081;28;46095;-58
2023/09/17 01:57:34;;;;;;;;;8.50;7.50;;;;;22.99;47.35;100659.91;5080468;28;45378;-59
2023/09/17 01:59:59;;;;;;;;;9.75;8.25;;;;;22.99;46.91;100658.13;5080826;28;45244;-59
2023/09/17 02:02:24;;;;;;;;;8.00;8.00;;;;;22.99;47.44;100654.56;5080500;28;45533;-59
2023/09/17 02:04:50;;;;;;;;;9.00;9.00;;;;;22.97;47.26;100654.66;5080481;28;45945;-59
2023/09/17 02:07:15;;;;;;;;;11.75;11.25;;;;;22.95;47.24;100651.22;5080663;28;45217;-59
2023/09/17 02:09:41;;;;;;;;;11.50;9.00;;;;;22.94;47.07;100644.16;5080642;28;45236;-59
2023/09/17 02:12:06;;;;;;;;;8.50;7.75;;;;;22.92;47.10;100648.78;5078835;28;45610;-59
2023/09/17 02:14:32;;;;;;;;;10.25;9.50;;;;;22.90;47.42;100648.00;5079041;28;47048;-59
2023/09/17 02:16:57;;;;;;;;;9.25;9.25;;;;;22.89;47.38;100644.47;5080237;28;45188;-59
2023/09/17 02:19:22;;;;;;;;;9.25;9.25;;;;;22.88;47.61;100644.59;5080411;28;45362;-59
2023/09/17 02:21:48;;;;;;;;;9.75;9.75;;;;;22.86;47.57;100638.47;5080210;28;46285;-59
2023/09/17 02:24:13;;;;;;;;;8.00;8.00;;;;;22.86;47.38;100633.13;5080468;28;45378;-59
2023/09/17 02:26:38;;;;;;;;;9.50;8.75;;;;;22.84;47.64;100633.22;5079797;28;45611;-59
2023/09/17 02:29:05;;;;;;;;;7.00;6.50;;;;;22.82;47.56;100626.25;5080062;28;46986;-59
2023/09/17 02:31:31;;;;;;;;;8.50;8.50;;;;;22.82;47.79;100627.09;5080063;28;45312;-59
2023/09/17 02:33:56;;;;;;;;;8.50;7.00;;;;;22.80;47.83;100629.00;5080136;28;45952;-59
2023/09/17 02:36:22;;;;;;;;;11.50;7.50;;;;;22.79;47.59;100629.13;5079983;28;45447;-59
2023/09/17 02:38:47;;;;;;;;;10.75;8.00;;;;;22.78;47.80;100624.72;5080420;28;45228;-59
2023/09/17 02:41:13;;;;;;;;;8.00;8.00;;;;;22.76;47.51;100632.88;5079782;28;46352;-59
2023/09/17 02:43:38;;;;;;;;;8.75;8.00;;;;;22.74;47.54;100632.09;5079708;28;57069;-59
2023/09/17 02:46:03;;;;;;;;;10.00;8.75;;;;;22.73;47.49;100633.94;5080082;28;45675;-59
2023/09/17 02:48:30;;;;;;;;;8.25;8.25;;;;;22.70;47.41;100630.59;5083285;28;45439;-59
2023/09/17 02:50:56;;;;;;;;;10.75;8.25;;;;;22.70;47.66;100623.44;5083098;28;45470;-59
2023/09/17 02:53:21;;;;;;;;;9.75;8.25;;;;;22.68;47.66;100629.88;5083338;28;45205;-59
2023/09/17 02:55:46;;;;;;;;;8.75;8.25;;;;;22.68;48.05;100638.75;5083209;28;45250;-59
2023/09/17 02:58:12;;;;;;;;;10.75;8.00;;;;;22.66;47.93;100634.44;5083498;28;45484;-59
2023/09/17 03:00:38;;;;;;;;;6.25;6.25;;;;;22.65;48.08;100620.19;5082160;28;45354;-59
2023/09/17 03:03:03;;;;;;;;;10.00;9.00;;;;;22.64;48.02;100623.84;5083372;28;46818;-59
2023/09/17 03:05:29;;;;;;;;;8.50;8.00;;;;;22.62;47.81;100614.22;5082749;28;45461;-59
2023/09/17 03:07:55;;;;;;;;;9.25;9.25;;;;;22.61;47.83;100609.81;5083152;28;49467;-59
2023/09/17 03:10:20;;;;;;;;;6.75;6.00;;;;;22.60;48.24;100608.09;5083118;28;45277;-59
2023/09/17 03:12:46;;;;;;;;;8.25;6.75;;;;;22.57;48.30;100606.47;5082947;28;46180;-59
2023/09/17 03:15:15;;;;;;;;;7.50;7.50;;;;;22.57;48.47;100603.78;5064816;28;45399;-59
2023/09/17 03:17:43;;;;;;;;;8.25;7.75;;;;;22.55;48.12;100606.59;5083196;28;45254;-59
2023/09/17 03:20:22;;;;;;;;;7.25;7.00;;;;;22.53;48.18;100604.97;5082931;28;45410;-59
2023/09/17 03:22:48;;;;;;;;;8.50;7.75;;;;;22.52;47.94;100616.63;5073214;28;47085;-59
2023/09/17 03:25:14;;;;;;;;;7.50;6.75;;;;;22.51;48.32;100612.22;5069183;28;45331;-59
2023/09/17 03:27:42;;;;;;;;;7.50;6.75;;;;;22.51;48.41;100622.94;5082876;28;45448;-59
2023/09/17 03:30:07;;;;;;;;;9.75;8.50;;;;;22.48;48.16;100625.84;5082601;28;45237;-59
2023/09/17 03:32:33;;;;;;;;;8.00;7.00;;;;;22.46;48.28;100627.75;5082634;28;46093;-59
2023/09/17 03:34:58;;;;;;;;;5.25;5.25;;;;;22.46;47.97;100622.38;5082898;28;45330;-59
2023/09/17 03:37:24;;;;;;;;;7.00;6.75;;;;;22.45;48.36;100628.69;5083049;28;45345;-59
2023/09/17 03:40:07;;;;;;;;;6.50;6.50;;;;;22.44;48.38;100618.94;5082992;28;45469;-59
2023/09/17 03:42:34;;;;;;;;;4.25;4.25;;;;;22.41;48.64;100611.97;5081886;28;45359;-59
2023/09/17 03:45:00;;;;;;;;;7.00;7.00;;;;;22.42;48.37;100615.53;5082771;28;45468;-59
2023/09/17 03:47:25;;;;;;;;;9.00;8.00;;;;;22.39;48.63;100614.75;5082437;28;45708;-59
2023/09/17 03:49:50;;;;;;;;;7.75;7.25;;;;;22.36;48.12;100603.38;5082678;28;49113;-59
2023/09/17 03:52:16;;;;;;;;;10.75;7.00;;;;;22.37;48.56;100608.63;5082516;28;46918;-58
2023/09/17 03:54:41;;;;;;;;;8.50;7.50;;;;;22.36;48.62;100604.25;5082479;28;45433;-59
2023/09/17 03:57:08;;;;;;;;;7.25;7.25;;;;;22.34;48.76;100603.47;5082114;28;45449;-59
2023/09/17 03:59:33;;;;;;;;;7.50;7.50;;;;;22.33;48.63;100609.78;5082371;28;45225;-58
2023/09/17 04:01:58;;;;;;;;;5.25;5.25;;;;;22.32;48.98;100602.69;5082269;28;46853;-59
2023/09/17 04:04:24;;;;;;;;;8.00;7.00;;;;;22.32;48.45;100601.84;5082331;28;51638;-59
2023/09/17 04:06:49;;;;;;;;;7.50;7.50;;;;;;;;5082424;28;45197;-59
2023/09/17 04:09:14;;;;;;;;;7.25;6.75;;;;;;;;5082537;28;45237;-59
2023/09/17 04:11:39;;;;;;;;;7.00;6.00;;;;;22.28;48.72;100598.53;5082196;28;46109;-59
2023/09/17 04:14:07;;;;;;;;;8.00;7.00;;;;;22.26;48.95;100592.41;5081747;28;57592;-59
2023/09/17 04:16:32;;;;;;;;;6.25;6.25;;;;;22.26;49.21;100602.25;5082305;28;45227;-59
2023/09/17 04:18:57;;;;;;;;;7.75;7.75;;;;;22.23;48.67;100603.31;5082143;28;45293;-59
2023/09/17 04:21:23;;;;;;;;;7.50;7.00;;;;;22.19;48.80;100610.69;5082008;28;45409;-58
2023/09/17 04:23:48;;;;;;;;;7.25;6.50;;;;;22.20;48.88;100612.41;5082374;28;45465;-59
2023/09/17 04:26:14;;;;;;;;;8.00;7.25;;;;;22.17;48.94;100603.72;5082044;28;45405;-59
2023/09/17 04:28:39;;;;;;;;;7.00;7.00;;;;;22.17;48.70;100611.75;5082022;28;45378;-59
2023/09/17 04:31:04;;;;;;;;;6.75;6.00;;;;;22.16;48.75;100604.66;5081866;28;45452;-59
2023/09/17 04:33:30;;;;;;;;;7.00;5.75;;;;;22.16;48.93;100608.22;5082119;28;45304;-59
2023/09/17 04:35:57;;;;;;;;;6.00;6.00;;;;;22.16;48.85;100599.31;5081661;28;46291;-59
2023/09/17 04:38:22;;;;;;;;;6.25;6.25;;;;;22.15;48.84;100600.28;5081998;28;45560;-59
2023/09/17 04:40:47;;;;;;;;;7.25;7.25;;;;;22.14;48.99;100598.53;5081654;28;46245;-59
2023/09/17 04:43:13;;;;;;;;;7.00;7.00;;;;;22.13;48.72;100597.69;5081400;28;52079;-59
2023/09/17 04:45:38;;;;;;;;;6.25;6.25;;;;;22.13;49.00;100594.19;5063517;28;45228;-59
2023/09/17 04:48:04;;;;;;;;;7.25;5.50;;;;;22.12;49.15;100592.47;5081898;28;45427;-59
2023/09/17 04:50:31;;;;;;;;;7.00;6.75;;;;;22.11;48.82;100599.59;5081527;28;46057;-59
2023/09/17 04:52:57;;;;;;;;;5.75;5.75;;;;;22.10;49.30;100597.03;5081702;28;45302;-59
2023/09/17 04:55:22;;;;;;;;;3.00;3.00;;;;;22.09;49.01;100606.91;5081438;28;45228;-59
2023/09/17 04:57:48;;;;;;;;;7.25;5.25;;;;;22.08;49.49;100599.81;5081477;28;45410;-59
2023/09/17 05:00:13;;;;;;;;;6.50;6.00;;;;;22.07;49.22;100609.69;5081452;28;45433;-58
2023/09/17 05:02:39;;;;;;;;;7.00;7.00;;;;;22.07;49.07;100614.16;5081446;28;45327;-58
2023/09/17 05:05:09;;;;;;;;;4.50;4.50;;;;;22.04;49.09;100604.50;5081534;28;45386;-59
2023/09/17 05:07:37;;;;;;;;;6.25;6.00;;;;;22.05;48.86;100602.72;5081603;28;45418;-59
2023/09/17 05:10:03;;;;;;;;;5.75;5.75;;;;;22.04;49.28;100607.19;5079995;28;46406;-59
2023/09/17 05:12:28;;;;;;;;;6.25;6.25;;;;;22.03;48.92;100609.97;5081135;28;45233;-59
2023/09/17 05:14:53;;;;;;;;;10.75;7.50;;;;;22.03;49.04;100608.13;5080879;28;53067;-59
2023/09/17 05:17:19;;;;;;;;;7.00;4.00;;;;;22.02;49.03;100603.75;5080129;28;58413;-59
2023/09/17 05:19:44;;;;;;;;;7.50;7.00;;;;;22.02;49.05;100606.41;5066216;28;48299;-59
2023/09/17 05:22:09;;;;;;;;;8.25;6.00;;;;;22.01;49.50;100609.19;5081259;28;45347;-58
2023/09/17 05:24:35;;;;;;;;;6.75;6.50;;;;;22.00;49.82;100608.34;5081009;28;45489;-59
2023/09/17 05:27:00;;;;;;;;;1.00;1.00;;;;;22.00;49.77;100611.03;5080856;28;45470;-59
2023/09/17 05:29:25;;;;;;;;;6.00;6.00;;;;;21.97;49.38;100608.53;5080711;28;57647;-59
2023/09/17 05:31:50;;;;;;;;;3.25;3.00;;;;;21.95;49.84;100609.59;5081109;28;45357;-59
2023/09/17 05:34:16;;;;;;;;;13.00;13.00;;;;;21.87;49.18;100597.59;5079904;28;45349;-59
2023/09/17 05:36:42;;;;;;;;;10.50;10.50;;;;;21.91;49.30;100614.28;5080887;28;45307;-59
2023/09/17 05:39:08;;;;;;;;;7.00;7.00;;;;;21.90;49.69;100613.41;5062429;28;53263;-58
2023/09/17 05:41:33;;;;;;;;;6.75;6.00;;;;;21.91;49.49;100616.94;5080882;28;45232;-59
2023/09/17 05:44:00;;;;;;;;;8.50;5.50;;;;;21.90;49.66;100615.25;5080795;28;45232;-59
2023/09/17 05:46:26;;;;;;;;;7.00;7.00;;;;;21.86;49.77;100595.00;5080843;28;45407;-59
2023/09/17 05:48:51;;;;;;;;;6.00;6.00;;;;;21.89;49.63;100605.50;5080578;28;45163;-59
2023/09/17 05:51:16;;;;;;;;;6.75;6.75;;;;;21.87;49.65;100591.34;5080582;28;57916;-59
2023/09/17 05:53:42;;;;;;;;;7.25;6.25;;;;;21.84;49.74;100597.75;5080692;28;45162;-59
2023/09/17 05:56:07;;;;;;;;;6.25;6.00;;;;;21.86;49.61;100603.00;5080286;28;52032;-58
2023/09/17 05:58:33;;;;;;;;;8.75;8.50;;;;;21.85;49.57;100594.13;5080451;28;46961;-59
2023/09/17 06:00:58;;;;;;;;;10.25;10.25;;;;;21.85;49.59;100604.84;5080842;28;45327;-58
2023/09/17 06:03:24;;;;;;;;;9.50;9.50;;;;;21.83;49.71;100604.06;5080504;28;45795;-58
2023/09/17 06:05:49;;;;;;;;;9.25;8.00;;;;;21.84;50.17;100604.94;5080551;28;45418;-59
2023/09/17 06:08:15;;;;;;;;;7.00;7.00;;;;;21.79;49.79;100596.34;5080442;28;46066;-59
2023/09/17 06:10:40;;;;;;;;;8.50;7.75;;;;;21.83;50.10;100592.53;5080708;28;45245;-59
2023/09/17 06:13:06;;;;;;;;;8.75;8.75;;;;;21.82;50.18;100588.13;5080519;28;45304;-59
2023/09/17 06:15:32;;;;;;;;;10.25;8.75;;;;;21.79;50.16;100594.53;5080164;28;45411;-59
2023/09/17 06:17:57;;;;;;;;;8.25;7.00;;;;;21.81;49.75;100597.09;5080245;28;45291;-59
2023/09/17 06:20:22;;;;;;;;;4.50;4.50;;;;;21.82;49.76;100601.50;5080116;28;45315;-59
2023/09/17 06:22:48;;;;;;;;;9.25;9.25;;;;;21.82;50.23;100591.66;5079258;28;45266;-59
2023/09/17 06:25:15;;;;;;;;;8.75;7.75;;;;;21.84;50.22;100599.59;5079932;28;45549;-59
2023/09/17 06:27:40;;;;;;;;;6.00;6.00;;;;;21.83;49.95;100601.38;5079896;28;45369;-59
2023/09/17 06:30:06;;;;;;;;;7.00;6.00;;;;;21.84;50.33;100607.63;5080167;28;45242;-59
2023/09/17 06:32:32;;;;;;;;;6.25;6.00;;;;;21.84;49.90;100619.16;5080325;28;45237;-59
2023/09/17 06:34:58;;;;;;;;;9.75;8.25;;;;;21.86;50.16;100614.59;5080220;28;45493;-59
2023/09/17 06:37:23;;;;;;;;;10.00;10.00;;;;;21.87;50.10;100612.75;5079920;28;46124;-59
2023/09/17 06:39:48;;;;;;;;;8.25;7.75;;;;;21.88;50.42;100614.47;5080311;28;45383;-58
2023/09/17 06:42:14;;;;;;;;;8.75;6.75;;;;;21.89;50.24;100614.38;5079893;28;45477;-59
2023/09/17 06:44:39;;;;;;;;;5.25;5.25;;;;;21.90;50.55;100613.41;5080245;28;45269;-59
2023/09/17 06:47:05;;;;;;;;;6.50;5.75;;;;;21.92;49.96;100606.16;5079187;28;46977;-58
2023/09/17 06:49:30;;;;;;;;;7.75;5.25;;;;;21.94;49.96;100602.50;5080096;28;45392;-59
2023/09/17 06:51:55;;;;;;;;;5.25;5.25;;;;;21.96;50.51;100612.19;5080059;28;45694;-59
2023/09/17 06:54:21;;;;;;;;;6.25;5.00;;;;;21.98;50.33;100596.88;5079592;28;45277;-58
2023/09/17 06:56:47;;;;;;;;;4.25;4.00;;;;;22.02;50.35;100608.25;5079089;28;46145;-59
2023/09/17 06:59:13;;;;;;;;;5.00;4.25;;;;;22.01;50.53;100599.38;5079199;28;45380;-58
2023/09/17 07:01:39;;;;;;;;;3.50;3.00;;;;;22.05;50.21;100619.59;5079851;28;45269;-59
2023/09/17 07:04:05;;;;;;;;;5.00;5.00;;;;;22.05;50.26;100610.75;5078840;28;45197;-59
2023/09/17 07:06:30;;;;;;;;;7.25;5.00;;;;;22.10;50.49;100613.09;5060705;28;48557;-59
2023/09/17 07:08:57;;;;;;;;;4.00;4.00;;;;;22.12;50.14;100605.84;5080937;27;45153;-60
2023/09/17 07:11:22;;;;;;;;;7.25;6.00;;;;;22.14;50.38;100609.25;5078575;28;45478;-61
2023/09/17 07:13:48;;;;;;;;;5.00;5.00;;;;;22.16;50.49;100623.41;5078654;27;45499;-60
2023/09/17 07:16:15;;;;;;;;;5.00;5.00;;;;;22.20;50.52;100625.78;5078775;28;46298;-59
2023/09/17 07:18:41;;;;;;;;;5.00;5.00;;;;;22.22;50.28;100609.63;5080331;27;45566;-60
2023/09/17 07:21:06;;;;;;;;;5.25;5.25;;;;;22.25;50.82;100604.09;5078381;28;55683;-59
2023/09/17 07:23:32;;;;;;;;;5.75;5.50;;;;;22.26;50.26;100600.44;5078657;28;45462;-59
2023/09/17 07:25:57;;;;;;;;;6.00;4.50;;;;;22.32;50.32;100607.22;5078612;27;45488;-59
2023/09/17 07:28:23;;;;;;;;;5.50;5.50;;;;;22.34;50.46;100599.91;5078129;28;45237;-60
2023/09/17 07:30:55;;;;;;;;;4.50;4.25;;;;;22.38;50.46;100604.16;5078888;28;45376;-60
2023/09/17 07:33:20;;;;;;;;;6.00;6.00;;;;;22.38;50.46;100599.66;5078557;28;45578;-60
2023/09/17 07:35:46;;;;;;;;;5.75;5.75;;;;;22.43;50.89;100606.50;5080646;28;47463;-61
2023/09/17 07:38:11;;;;;;;;;5.00;5.00;;;;;22.44;50.34;100598.41;5082087;27;45506;-60
2023/09/17 07:40:36;;;;;;;;;5.50;5.50;;;;;22.48;50.43;100605.25;5081915;28;45389;-59
2023/09/17 07:43:03;;;;;;;;;4.00;3.75;;;;;22.50;50.46;100610.50;5081836;28;45295;-59
2023/09/17 07:45:28;;;;;;;;;5.50;5.50;;;;;22.51;50.45;100613.06;5081802;28;46446;-59
2023/09/17 07:47:54;;;;;;;;;6.00;6.00;;;;;22.55;50.60;100614.63;5081831;28;45254;-59
2023/09/17 07:50:19;;;;;;;;;5.25;3.75;;;;;22.55;50.78;100609.25;5095869;27;45219;-60
2023/09/17 07:52:45;;;;;;;;;5.50;5.50;;;;;22.58;50.66;100613.53;5102597;27;53001;-58
2023/09/17 07:55:10;;;;;;;;;6.50;6.00;;;;;22.59;50.31;100623.31;5082166;27;46401;-58
2023/09/17 07:57:35;;;;;;;;;6.75;5.50;;;;;22.64;50.98;100623.84;5081546;28;45327;-57
2023/09/17 08:00:01;;;;;;;;;4.00;4.00;;;;;22.65;50.30;100622.88;5082477;28;45372;-58
2023/09/17 08:02:26;;;;;;;;;6.00;6.00;;;;;22.67;50.48;100623.63;5082362;28;45245;-58
2023/09/17 08:04:52;;;;;;;;;5.00;4.00;;;;;22.70;50.56;100623.44;5081952;28;45830;-57
2023/09/17 08:07:18;;;;;;;;;6.25;5.25;;;;;22.74;50.66;100624.06;5081797;27;45324;-58
2023/09/17 08:09:43;;;;;;;;;6.50;5.50;;;;;22.78;50.75;100624.72;5081644;28;45367;-57
2023/09/17 08:12:10;;;;;;;;;6.00;4.25;;;;;22.79;50.46;100621.09;5081241;28;45305;-57
2023/09/17 08:14:36;;;;;;;;;4.75;4.00;;;;;22.82;50.27;100632.47;5081624;27;46053;-58
2023/09/17 08:17:03;;;;;;;;;6.25;5.25;;;;;22.83;50.66;100634.19;5072852;27;45470;-58
2023/09/17 08:19:29;;;;;;;;;7.25;6.00;;;;;22.87;50.64;100633.00;5090319;27;45261;-58
2023/09/17 08:21:54;;;;;;;;;7.25;7.25;;;;;22.92;50.48;100631.81;5093352;27;46835;-58
2023/09/17 08:24:20;;;;;;;;;6.75;6.75;;;;;22.94;50.99;100620.03;5091473;27;45506;-58
2023/09/17 08:26:47;;;;;;;;;12.00;8.75;;;;;23.00;50.57;100618.78;5086804;27;45421;-58
2023/09/17 08:29:12;;;;;;;;;9.75;8.50;;;;;23.05;50.60;100617.47;5094071;27;45264;-58
2023/09/17 08:31:38;;;;;;;;;9.75;8.00;;;;;23.10;50.60;100613.66;5102332;27;45562;-58
2023/09/17 08:34:03;;;;;;;;;7.25;7.25;;;;;23.14;50.51;100605.25;5102252;27;45956;-57
2023/09/17 08:36:29;;;;;;;;;8.00;6.50;;;;;23.21;50.62;100600.41;5088023;27;45449;-59
2023/09/17 08:38:54;;;;;;;;;7.25;5.50;;;;;23.26;50.58;100602.72;5082053;28;45304;-57
2023/09/17 08:41:23;;;;;;;;;6.25;5.75;;;;;23.30;50.88;100610.47;5081594;28;45237;-57
2023/09/17 08:43:51;;;;;;;;;8.25;6.75;;;;;23.38;50.70;100626.00;5080927;28;45198;-57
2023/09/17 08:46:18;;;;;;;;;7.75;6.00;;;;;23.43;51.11;100628.38;5080895;28;45420;-57
2023/09/17 08:48:44;;;;;;;;;7.50;7.50;;;;;23.45;50.50;100638.03;5081312;28;45431;-58
2023/09/17 08:51:12;;;;;;;;;6.25;5.50;;;;;23.48;50.47;100628.91;5074773;27;45317;-57
2023/09/17 08:53:52;;;;;;;;;7.00;6.00;;;;;23.54;50.70;100629.31;5094762;27;45514;-57
2023/09/17 08:56:19;;;;;;;;;9.50;8.25;;;;;23.57;50.68;100632.75;5081573;28;45610;-57
2023/09/17 08:58:52;;;;;;;;;9.50;9.00;;;;;23.61;50.82;100629.75;5081350;28;45400;-57
2023/09/17 09:01:21;;;;;;;;;7.00;7.00;;;;;23.66;50.67;100627.59;5081461;28;45216;-57
2023/09/17 09:03:47;;;;;;;;;5.75;5.75;;;;;23.71;50.67;100613.88;5081355;28;45472;-58
2023/09/17 09:06:15;;;;;;;;;5.75;5.00;;;;;23.78;50.71;100611.59;5081317;28;45410;-58
2023/09/17 09:08:42;;;;;;;;;8.50;7.75;;;;;23.83;50.79;100606.75;5081450;28;45224;-58
2023/09/17 09:11:08;;;;;;;;;4.75;4.75;;;;;23.91;50.69;100609.78;5081548;28;45439;-57
2023/09/17 09:13:36;;;;;;;;;7.25;7.25;;;;;23.98;50.68;100610.19;5062271;28;46338;-58
2023/09/17 09:16:02;;;;;;;;;6.00;6.00;;;;;24.02;50.78;100607.19;5080632;28;45621;-58
2023/09/17 09:18:29;;;;;;;;;8.25;5.50;;;;;24.08;51.04;100610.38;5064450;27;45447;-58
2023/09/17 09:20:55;;;;;;;;;8.75;8.00;;;;;24.13;50.20;100609.06;5080411;27;45383;-58
2023/09/17 09:23:21;;;;;;;;;7.00;7.00;;;;;24.20;50.94;100608.59;5081451;27;46121;-58
2023/09/17 09:25:46;;;;;;;;;7.00;7.00;;;;;24.27;50.51;100609.88;5080252;28;45565;-58
2023/09/17 09:28:12;;;;;;;;;10.00;9.00;;;;;24.34;50.23;100609.28;5080295;28;45415;-58
2023/09/17 09:30:37;;;;;;;;;7.00;7.00;;;;;24.40;50.01;100608.00;5080531;28;45476;-58
2023/09/17 09:33:03;;;;;;;;;8.25;8.25;;;;;24.46;50.25;100609.34;5079828;27;46049;-58
2023/09/17 09:35:30;;;;;;;;;7.50;7.00;;;;;24.54;50.34;100609.66;5080252;28;45594;-58
2023/09/17 09:37:56;;;;;;;;;9.50;8.50;;;;;24.60;50.51;100617.25;5080302;28;45498;-57
2023/09/17 09:40:21;;;;;;;;;7.75;7.00;;;;;24.70;50.64;100614.72;5077574;28;45340;-57
2023/09/17 09:42:48;;;;;;;;;7.00;7.00;;;;;24.77;50.39;100601.69;5079933;27;46092;-58
2023/09/17 09:45:15;;;;;;;;;7.75;7.75;;;;;24.86;50.44;100603.69;5080255;28;45339;-58
2023/09/17 09:47:46;;;;;;;;;12.50;7.50;;;;;24.95;50.19;100594.03;5078108;28;45266;-58
2023/09/17 09:50:23;;;;;;;;;67.75;52.75;;;;;25.07;50.67;100597.59;5080059;28;45422;-57
2023/09/17 09:52:49;;;;;;;;;66.25;53.00;;;;;25.17;50.03;100582.50;5078285;28;46325;-58
2023/09/17 09:55:14;;;;;;;;;16.00;15.50;;;;;25.29;50.10;100576.13;5079440;27;45311;-59
2023/09/17 09:57:41;;;;;;;;;20.50;19.00;;;;;25.43;50.29;100566.16;5079628;28;45254;-57
2023/09/17 10:00:14;;;;;;;;;7.75;7.75;;;;;25.54;49.77;100551.84;5080027;28;45248;-58
2023/09/17 10:02:40;;;;;;;;;9.25;9.25;;;;;25.69;49.92;100553.28;5079709;28;47395;-58
2023/09/17 10:05:07;;;;;;;;;9.50;9.50;;;;;25.83;50.22;100541.41;5078433;28;45344;-58
2023/09/17 10:07:33;;;;;;;;;8.75;8.25;;;;;26.00;49.60;100547.22;5080410;28;45259;-58
2023/09/17 10:10:00;;;;;;;;;10.25;7.50;;;;;26.14;49.59;100546.09;5079846;28;45559;-61
2023/09/17 10:12:27;;;;;;;;;8.25;8.25;;;;;26.28;49.55;100535.91;5078823;28;47737;-62
2023/09/17 10:14:52;;;;;;;;;6.75;6.75;;;;;26.41;49.90;100540.25;5080251;28;45509;-62
2023/09/17 10:17:18;;;;;;;;;7.00;7.00;;;;;26.56;49.95;100552.41;5080518;27;45283;-61
2023/09/17 10:19:47;;;;;;;;;7.75;7.75;;;;;26.72;49.62;100548.44;5062558;28;45456;-60
2023/09/17 10:22:15;;;;;;;;;10.25;10.25;;;;;26.83;49.82;100537.63;5079637;28;46340;-64
2023/09/17 10:24:41;;;;;;;;;10.50;8.50;;;;;26.97;49.75;100544.50;5079714;28;45390;-60
2023/09/17 10:27:08;;;;;;;;;9.00;9.00;;;;;27.11;49.93;100540.59;5079585;28;45356;-62
2023/09/17 10:29:38;;;;;;;;;35.75;30.50;;;;;27.20;49.76;100537.09;5079692;28;45554;-62
2023/09/17 10:32:04;;;;;;;;;5.00;5.00;;;;;27.35;49.18;100528.66;5080164;28;45494;-62
2023/09/17 10:34:35;;;;;;;;;8.25;8.25;;;;;27.47;49.41;100518.63;5079946;28;45375;-62
2023/09/17 10:37:03;;;;;;;;;11.00;11.00;;;;;27.57;48.82;100517.69;5079886;28;45368;-63
2023/09/17 10:39:29;;;;;;;;;6.00;6.00;;;;;27.68;49.03;100505.88;5079843;28;45406;-64
2023/09/17 10:41:57;;;;;;;;;10.00;9.00;;;;;27.75;48.62;100508.91;5079710;28;46542;-64
2023/09/17 10:44:25;;;;;;;;;14.50;13.00;;;;;27.89;48.45;100516.59;5061541;28;45347;-63
2023/09/17 10:46:52;;;;;;;;;9.75;8.75;;;;;27.96;48.40;100510.63;5080028;28;45214;-64
2023/09/17 10:49:17;;;;;;;;;5.50;5.50;;;;;28.08;48.75;100504.13;5079688;28;45489;-63
2023/09/17 10:51:46;;;;;;;;;8.00;7.00;;;;;28.17;48.43;100497.88;5079897;28;46045;-62
2023/09/17 10:54:12;;;;;;;;;7.25;6.00;;;;;28.26;48.22;100501.56;5079749;28;45688;-62
2023/09/17 10:56:41;;;;;;;;;7.75;7.75;;;;;28.36;48.04;100498.88;5079531;28;45373;-63
2023/09/17 10:59:11;;;;;;;;;7.50;7.25;;;;;28.46;48.12;100504.25;5079205;28;45411;-63
2023/09/17 11:01:38;;;;;;;;;6.00;6.00;;;;;28.52;48.08;100496.41;5061002;28;46241;-63
2023/09/17 11:04:10;;;;;;;;;7.00;5.25;;;;;28.62;47.86;100503.69;5079636;27;45276;-63
2023/09/17 11:06:38;;;;;;;;;6.00;6.00;;;;;28.68;47.83;100503.97;5077857;27;45453;-62
2023/09/17 11:09:06;;;;;;;;;8.00;6.00;;;;;28.72;47.53;100500.97;5081123;28;45661;-62
2023/09/17 11:11:36;;;;;;;;;8.25;6.50;;;;;28.77;47.53;100502.25;5081781;27;45650;-62
2023/09/17 11:14:04;;;;;;;;;7.75;7.25;;;;;28.82;47.29;100501.81;5081810;28;45475;-63
2023/09/17 11:16:31;;;;;;;;;6.00;5.25;;;;;28.86;47.16;100497.81;5082328;27;45285;-62
2023/09/17 11:19:13;;;;;;;;;7.00;7.00;;;;;28.88;47.19;100503.94;5082996;27;45165;-62
2023/09/17 11:22:08;;;;;;;;;5.25;5.25;;;;;28.90;46.93;100501.06;5081154;28;46190;-63